createdAt,value
2018-01-29T00:00:09.002Z,9.50
2018-01-29T00:02:38.824Z,9.30
2018-01-29T00:05:08.597Z,9.40
2018-01-29T00:07:37.682Z,9.30
2018-01-29T00:10:06.695Z,9.40
2018-01-29T00:12:35.692Z,9.30
2018-01-29T00:15:04.737Z,9.30
2018-01-29T00:17:35.814Z,9.40
2018-01-29T00:20:05.131Z,9.50
2018-01-29T00:22:34.133Z,9.60
2018-01-29T00:25:03.184Z,9.60
2018-01-29T00:27:33.158Z,9.60
2018-01-29T00:30:02.966Z,9.70
2018-01-29T00:32:32.742Z,9.80
2018-01-29T00:35:01.790Z,9.70
2018-01-29T00:37:30.797Z,9.90
2018-01-29T00:39:59.848Z,9.90
2018-01-29T00:42:28.863Z,9.90
2018-01-29T00:44:58.349Z,9.80
2018-01-29T00:47:27.358Z,9.80
2018-01-29T00:49:57.173Z,9.90
2018-01-29T00:52:26.951Z,9.90
2018-01-29T00:54:56.009Z,9.90
2018-01-29T00:57:25.051Z,10.00
2018-01-29T00:59:54.068Z,10.10
2018-01-29T01:02:23.895Z,10.10
2018-01-29T01:04:52.919Z,10.00
2018-01-29T01:07:21.972Z,10.10
2018-01-29T01:09:51.754Z,10.20
2018-01-29T01:12:20.836Z,10.10
2018-01-29T01:14:49.845Z,10.30
2018-01-29T01:17:18.911Z,10.30
2018-01-29T01:19:47.925Z,10.30
2018-01-29T01:22:16.987Z,10.20
2018-01-29T01:24:46.068Z,10.10
2018-01-29T01:27:15.102Z,10.10
2018-01-29T01:29:44.153Z,10.10
2018-01-29T01:32:13.174Z,10.10
2018-01-29T01:34:42.245Z,10.10
2018-01-29T01:37:11.263Z,10.10
2018-01-29T01:39:40.319Z,10.00
2018-01-29T01:42:09.325Z,10.00
2018-01-29T01:44:38.381Z,10.00
2018-01-29T01:47:07.394Z,10.00
2018-01-29T01:49:37.211Z,9.90
2018-01-29T01:52:06.995Z,9.90
2018-01-29T01:54:36.107Z,9.90
2018-01-29T01:57:05.888Z,10.00
2018-01-29T01:59:34.908Z,10.00
2018-01-29T02:02:04.724Z,10.10
2018-01-29T02:04:34.499Z,10.10
2018-01-29T02:07:03.568Z,10.00
2018-01-29T02:09:32.622Z,10.10
2018-01-29T02:12:02.441Z,10.20
2018-01-29T02:14:32.242Z,10.20
2018-01-29T02:17:02.077Z,10.30
2018-01-29T02:19:31.098Z,10.20
2018-01-29T02:22:00.142Z,10.40
2018-01-29T02:24:29.974Z,10.40
2018-01-29T02:26:58.996Z,10.30
2018-01-29T02:29:28.058Z,10.40
2018-01-29T02:31:57.124Z,10.40
2018-01-29T02:34:26.143Z,10.50
2018-01-29T02:36:55.201Z,10.50
2018-01-29T02:39:24.226Z,10.40
2018-01-29T02:41:53.998Z,10.30
2018-01-29T02:44:23.052Z,10.30
2018-01-29T02:46:52.074Z,10.30
2018-01-29T02:49:21.117Z,10.20
2018-01-29T02:51:50.898Z,10.20
2018-01-29T02:54:20.864Z,10.10
2018-01-29T02:56:49.889Z,10.10
2018-01-29T02:59:18.942Z,10.10
2018-01-29T03:01:47.976Z,10.20
2018-01-29T03:04:17.056Z,10.30
2018-01-29T03:06:46.083Z,10.30
2018-01-29T03:09:15.169Z,10.40
2018-01-29T03:11:44.169Z,10.40
2018-01-29T03:14:13.258Z,10.40
2018-01-29T03:16:42.273Z,10.30
2018-01-29T03:19:11.324Z,10.30
2018-01-29T03:21:40.342Z,10.30
2018-01-29T03:24:09.413Z,10.30
2018-01-29T03:26:38.424Z,10.30
2018-01-29T03:29:07.448Z,10.30
2018-01-29T03:31:37.270Z,10.30
2018-01-29T03:34:07.053Z,10.30
2018-01-29T03:36:36.101Z,10.20
2018-01-29T03:39:05.123Z,10.30
2018-01-29T03:41:34.178Z,10.30
2018-01-29T03:44:03.206Z,10.30
2018-01-29T03:46:32.256Z,10.30
2018-01-29T03:49:02.042Z,10.30
2018-01-29T03:51:31.103Z,10.20
2018-01-29T03:54:00.113Z,10.20
2018-01-29T03:56:29.169Z,10.20
2018-01-29T03:58:58.186Z,10.20
2018-01-29T04:01:27.265Z,10.10
2018-01-29T04:03:56.260Z,10.10
2018-01-29T04:06:25.278Z,10.30
2018-01-29T04:08:54.335Z,10.30
2018-01-29T04:11:23.354Z,10.30
2018-01-29T04:13:52.405Z,10.40
2018-01-29T04:16:21.441Z,10.40
2018-01-29T04:18:50.499Z,10.30
2018-01-29T04:21:20.281Z,10.40
2018-01-29T04:23:49.332Z,10.40
2018-01-29T04:26:18.359Z,10.50
2018-01-29T04:28:47.408Z,10.50
2018-01-29T04:31:16.420Z,10.40
2018-01-29T04:33:45.478Z,10.40
2018-01-29T04:36:14.499Z,10.40
2018-01-29T04:38:43.563Z,10.40
2018-01-29T04:41:13.346Z,10.40
2018-01-29T04:43:42.365Z,10.40
2018-01-29T04:46:12.212Z,10.40
2018-01-29T04:48:41.217Z,10.40
2018-01-29T04:51:10.256Z,10.50
2018-01-29T04:53:40.040Z,10.40
2018-01-29T04:56:09.092Z,10.40
2018-01-29T04:58:38.108Z,10.40
2018-01-29T05:01:07.160Z,10.50
2018-01-29T05:03:36.946Z,10.50
2018-01-29T05:06:06.073Z,10.50
2018-01-29T05:08:38.930Z,10.60
2018-01-29T05:11:07.993Z,10.50
2018-01-29T05:13:37.006Z,10.60
2018-01-29T05:16:06.058Z,10.50
2018-01-29T05:18:35.072Z,10.60
2018-01-29T05:21:04.142Z,10.60
2018-01-29T05:23:33.166Z,10.60
2018-01-29T05:26:02.206Z,10.60
2018-01-29T05:28:32.033Z,10.50
2018-01-29T05:31:01.058Z,10.50
2018-01-29T05:33:30.106Z,10.60
2018-01-29T05:35:59.884Z,10.50
2018-01-29T05:38:29.269Z,10.50
2018-01-29T05:40:58.281Z,10.50
2018-01-29T05:43:27.335Z,10.60
2018-01-29T05:45:56.352Z,10.50
2018-01-29T05:48:25.408Z,10.50
2018-01-29T05:50:54.421Z,10.60
2018-01-29T05:53:23.476Z,10.50
2018-01-29T05:55:53.257Z,10.50
2018-01-29T05:58:22.327Z,10.50
2018-01-29T06:00:51.350Z,10.50
2018-01-29T06:03:20.427Z,10.50
2018-01-29T06:05:49.475Z,10.40
2018-01-29T06:08:18.544Z,10.40
2018-01-29T06:10:47.565Z,10.50
2018-01-29T06:13:17.348Z,10.40
2018-01-29T06:15:46.397Z,10.40
2018-01-29T06:18:15.423Z,10.40
2018-01-29T06:20:44.479Z,10.40
2018-01-29T06:23:13.506Z,10.50
2018-01-29T06:25:42.570Z,10.60
2018-01-29T06:28:11.594Z,10.50
2018-01-29T06:30:40.640Z,10.50
2018-01-29T06:33:09.678Z,10.50
2018-01-29T06:35:38.735Z,10.50
2018-01-29T06:38:08.001Z,10.30
2018-01-29T06:40:37.103Z,10.30
2018-01-29T06:43:06.124Z,10.40
2018-01-29T06:45:35.186Z,10.40
2018-01-29T06:48:04.461Z,10.40
2018-01-29T06:51:01.778Z,10.40
2018-01-29T06:53:30.789Z,10.40
2018-01-29T06:55:59.849Z,10.30
2018-01-29T06:58:44.654Z,10.30
2018-01-29T07:01:29.782Z,10.30
2018-01-29T08:25:17.793Z,10.80
2018-01-29T08:27:46.830Z,10.80
2018-01-29T08:30:18.185Z,10.80
2018-01-29T08:32:50.774Z,10.80
2018-01-29T08:35:20.612Z,10.80
2018-01-29T08:37:49.642Z,10.70
2018-01-29T08:40:18.731Z,10.80
2018-01-29T08:42:47.782Z,10.90
2018-01-29T08:45:16.899Z,10.90
2018-01-29T08:47:45.967Z,10.90
2018-01-29T08:50:15.772Z,11.00
2018-01-29T08:52:45.624Z,11.10
2018-01-29T08:55:14.666Z,11.00
2018-01-29T08:57:43.758Z,10.90
2018-01-29T09:00:12.883Z,10.90
2018-01-29T09:02:41.980Z,10.90
2018-01-29T09:05:11.021Z,11.00
2018-01-29T09:07:40.127Z,11.00
2018-01-29T09:10:09.177Z,11.00
2018-01-29T09:12:38.255Z,11.10
2018-01-29T09:15:07.296Z,11.10
2018-01-29T09:17:36.351Z,11.10
2018-01-29T09:20:05.411Z,10.90
2018-01-29T09:22:34.489Z,10.90
2018-01-29T09:25:04.321Z,10.90
2018-01-29T09:27:34.186Z,11.00
2018-01-29T09:30:03.245Z,11.00
2018-01-29T09:32:32.339Z,11.10
2018-01-29T09:35:01.428Z,11.10
2018-01-29T09:37:31.241Z,11.10
2018-01-29T09:40:01.120Z,11.10
2018-01-29T09:42:30.175Z,11.10
2018-01-29T09:44:59.251Z,11.20
2018-01-29T09:47:29.060Z,11.30
2018-01-29T09:49:58.916Z,11.40
2018-01-29T09:52:49.103Z,11.40
2018-01-29T09:55:18.192Z,11.50
2018-01-29T09:57:47.250Z,11.60
2018-01-29T10:00:17.105Z,11.30
2018-01-29T10:02:46.190Z,11.20
2018-01-29T10:05:15.231Z,11.40
2018-01-29T10:07:44.315Z,11.40
2018-01-29T10:10:13.358Z,11.50
2018-01-29T10:12:43.268Z,11.60
2018-01-29T10:15:12.314Z,11.60
2018-01-29T10:17:41.400Z,11.50
2018-01-29T10:20:10.454Z,11.50
2018-01-29T10:22:39.607Z,11.50
2018-01-29T10:28:27.813Z,11.30
2018-01-29T10:31:04.864Z,11.20
2018-01-29T10:33:33.938Z,11.10
2018-01-29T10:36:03.021Z,11.10
2018-01-29T10:38:32.091Z,11.10
2018-01-29T10:41:01.132Z,11.10
2018-01-29T10:43:30.204Z,11.10
2018-01-29T10:45:59.248Z,11.00
2018-01-29T10:48:28.341Z,10.90
2018-01-29T10:50:58.138Z,10.80
2018-01-29T10:53:27.211Z,10.70
2018-01-29T10:56:11.127Z,10.90
2018-01-29T10:58:40.224Z,11.10
2018-01-29T11:01:14.894Z,11.20
2018-01-29T11:03:44.908Z,11.40
2018-01-29T11:06:13.952Z,11.40
2018-01-29T11:08:42.997Z,11.50
2018-01-29T11:11:12.118Z,11.70
2018-01-29T11:13:41.160Z,11.90
2018-01-29T11:16:10.248Z,12.00
2018-01-29T11:18:39.336Z,12.00
2018-01-29T11:21:12.351Z,12.20
2018-01-29T11:23:41.389Z,12.40
2018-01-29T11:26:21.967Z,12.60
2018-01-29T11:28:55.243Z,13.00
2018-01-29T11:31:24.324Z,13.50
2018-01-29T11:33:54.140Z,14.10
2018-01-29T11:36:23.976Z,14.20
2018-01-29T11:38:53.006Z,14.20
2018-01-29T11:41:22.082Z,14.60
2018-01-29T11:43:51.131Z,14.60
2018-01-29T11:46:50.483Z,17.20
2018-01-29T11:49:19.506Z,17.10
2018-01-29T11:51:48.574Z,19.30
2018-01-29T11:54:17.678Z,20.60
2018-01-29T11:56:46.771Z,21.50
2018-01-29T11:59:16.149Z,21.90
2018-01-29T12:01:45.319Z,22.70
2018-01-29T12:04:14.668Z,23.00
2018-01-29T12:06:43.716Z,22.20
2018-01-29T12:09:13.588Z,19.90
2018-01-29T12:11:42.671Z,19.80
2018-01-29T12:14:19.933Z,19.20
2018-01-29T12:16:49.005Z,19.10
2018-01-29T12:19:19.053Z,19.40
2018-01-29T12:21:48.927Z,19.20
2018-01-29T12:24:22.451Z,19.80
2018-01-29T12:26:51.556Z,19.70
2018-01-29T12:29:20.596Z,20.90
2018-01-29T12:31:50.698Z,21.60
2018-01-29T12:34:19.787Z,21.50
2018-01-29T12:36:49.312Z,21.10
2018-01-29T12:39:18.797Z,20.90
2018-01-29T12:41:48.803Z,21.50
2018-01-29T12:44:17.876Z,22.40
2018-01-29T12:46:56.765Z,23.50
2018-01-29T12:49:38.236Z,24.70
2018-01-29T12:52:18.366Z,25.70
2018-01-29T12:54:47.559Z,26.40
2018-01-29T12:57:16.700Z,26.70
2018-01-29T12:59:45.871Z,26.90
2018-01-29T13:02:16.142Z,27.00
2018-01-29T13:04:51.641Z,26.40
2018-01-29T13:07:46.131Z,25.50
2018-01-29T13:10:21.303Z,24.90
2018-01-29T13:12:51.090Z,25.00
2018-01-29T13:15:20.110Z,25.00
2018-01-29T13:17:50.285Z,23.50
2018-01-29T13:20:19.723Z,23.40
2018-01-29T13:22:49.287Z,21.90
2018-01-29T13:25:18.578Z,20.50
2018-01-29T13:27:48.002Z,19.40
2018-01-29T13:30:18.295Z,17.30
2018-01-29T13:32:47.981Z,17.30
2018-01-29T13:35:18.296Z,15.70
2018-01-29T13:38:01.195Z,15.60
2018-01-29T13:40:31.430Z,14.10
2018-01-29T13:43:00.508Z,14.00
2018-01-29T13:45:30.501Z,13.20
2018-01-29T13:48:04.686Z,13.10
2018-01-29T13:50:34.383Z,12.90
2018-01-29T13:53:04.498Z,12.50
2018-01-29T13:55:34.051Z,12.40
2018-01-29T13:58:09.802Z,12.40
2018-01-29T14:00:38.986Z,12.40
2018-01-29T14:03:08.640Z,12.30
2018-01-29T14:05:37.940Z,12.30
2018-01-29T14:08:08.674Z,12.40
2018-01-29T14:10:38.210Z,12.40
2018-01-29T14:13:07.667Z,12.40
2018-01-29T14:15:37.245Z,12.40
2018-01-29T14:18:07.413Z,12.40
2018-01-29T14:20:37.461Z,12.30
2018-01-29T14:23:07.406Z,12.40
2018-01-29T14:25:36.764Z,12.40
2018-01-29T14:28:06.001Z,12.40
2018-01-29T14:30:36.496Z,12.20
2018-01-29T14:33:05.831Z,12.20
2018-01-29T14:35:35.122Z,12.20
2018-01-29T14:38:09.967Z,12.10
2018-01-29T14:40:39.538Z,12.20
2018-01-29T14:43:09.161Z,12.20
2018-01-29T14:45:38.808Z,12.20
2018-01-29T14:48:08.196Z,12.20
2018-01-29T14:50:37.511Z,12.20
2018-01-29T14:53:06.549Z,12.20
2018-01-29T14:55:35.603Z,12.20
2018-01-29T14:58:04.775Z,12.30
2018-01-29T15:00:34.085Z,12.30
2018-01-29T15:03:04.288Z,12.30
2018-01-29T15:05:33.334Z,12.20
2018-01-29T15:08:06.087Z,12.30
2018-01-29T15:10:35.114Z,12.30
2018-01-29T15:13:04.278Z,12.30
2018-01-29T15:15:33.338Z,12.30
2018-01-29T15:18:02.419Z,12.20
2018-01-29T15:20:35.535Z,12.10
2018-01-29T15:23:04.700Z,12.00
2018-01-29T15:25:38.442Z,11.80
2018-01-29T15:28:08.360Z,11.70
2018-01-29T15:30:39.457Z,11.60
2018-01-29T15:33:08.527Z,11.60
2018-01-29T15:35:37.581Z,11.60
2018-01-29T15:38:06.596Z,11.60
2018-01-29T15:40:35.700Z,11.60
2018-01-29T15:43:05.567Z,11.80
2018-01-29T15:45:40.806Z,11.70
2018-01-29T15:48:10.009Z,11.90
2018-01-29T15:50:39.076Z,12.00
2018-01-29T15:53:10.146Z,12.00
2018-01-29T15:55:39.966Z,11.90
2018-01-29T15:58:09.214Z,11.90
2018-01-29T16:00:38.286Z,11.90
2018-01-29T16:03:07.377Z,11.90
2018-01-29T16:05:41.193Z,11.80
2018-01-29T16:08:13.917Z,11.80
2018-01-29T16:10:43.762Z,11.60
2018-01-29T16:13:12.778Z,11.60
2018-01-29T16:15:43.797Z,11.60
2018-01-29T16:18:12.857Z,11.60
2018-01-29T16:20:42.650Z,11.50
2018-01-29T16:23:11.729Z,11.50
2018-01-29T16:25:40.770Z,11.50
2018-01-29T16:28:10.605Z,11.30
2018-01-29T16:30:39.625Z,11.30
2018-01-29T16:33:08.690Z,11.30
2018-01-29T16:35:37.733Z,11.10
2018-01-29T16:38:06.810Z,11.10
2018-01-29T16:40:35.856Z,11.10
2018-01-29T16:43:05.697Z,11.00
2018-01-29T16:46:01.844Z,10.90
2018-01-29T16:48:31.971Z,10.90
2018-01-29T16:51:01.365Z,10.80
2018-01-29T16:53:31.396Z,10.90
2018-01-29T16:56:14.219Z,10.80
2018-01-29T16:58:43.680Z,10.70
2018-01-29T17:01:14.074Z,10.70
2018-01-29T17:03:43.293Z,10.60
2018-01-29T17:06:13.514Z,10.60
2018-01-29T17:08:42.979Z,10.50
2018-01-29T17:11:12.345Z,10.50
2018-01-29T17:13:41.666Z,10.40
2018-01-29T17:16:11.310Z,10.40
2018-01-29T17:18:41.268Z,10.40
2018-01-29T17:21:10.913Z,10.40
2018-01-29T17:23:41.185Z,10.40
2018-01-29T17:26:11.408Z,10.50
2018-01-29T17:28:41.348Z,10.60
2018-01-29T17:31:10.696Z,10.50
2018-01-29T17:33:39.967Z,10.50
2018-01-29T17:36:09.388Z,10.50
2018-01-29T17:38:39.001Z,10.50
2018-01-29T17:41:08.151Z,10.50
2018-01-29T17:43:57.478Z,10.40
2018-01-29T17:46:27.144Z,10.40
2018-01-29T17:48:56.620Z,10.40
2018-01-29T17:51:25.723Z,10.40
2018-01-29T17:53:54.787Z,10.30
2018-01-29T17:56:24.203Z,10.20
2018-01-29T17:58:58.157Z,10.20
2018-01-29T18:01:28.413Z,10.10
2018-01-29T18:03:57.906Z,10.20
2018-01-29T18:06:27.025Z,10.30
2018-01-29T18:08:58.306Z,10.30
2018-01-29T18:11:27.984Z,10.20
2018-01-29T18:13:59.568Z,10.30
2018-01-29T18:16:29.438Z,10.40
2018-01-29T18:18:59.340Z,10.30
2018-01-29T18:21:30.327Z,10.30
2018-01-29T18:24:00.236Z,10.40
2018-01-29T18:26:29.641Z,10.30
2018-01-29T18:28:59.946Z,10.30
2018-01-29T18:31:29.680Z,10.20
2018-01-29T18:33:59.109Z,10.20
2018-01-29T18:36:28.710Z,10.10
2018-01-29T18:38:58.035Z,10.30
2018-01-29T18:41:27.229Z,10.40
2018-01-29T18:43:56.632Z,10.40
2018-01-29T18:46:26.821Z,10.40
2018-01-29T18:48:56.171Z,10.40
2018-01-29T18:51:25.368Z,10.40
2018-01-29T18:53:54.622Z,10.40
2018-01-29T18:56:25.862Z,10.50
2018-01-29T18:58:55.096Z,10.40
2018-01-29T19:01:24.679Z,10.40
2018-01-29T19:03:54.738Z,10.40
2018-01-29T19:06:25.398Z,10.40
2018-01-29T19:08:54.674Z,10.30
2018-01-29T19:11:23.790Z,10.30
2018-01-29T19:13:53.583Z,10.20
2018-01-29T19:16:22.910Z,10.30
2018-01-29T19:18:52.321Z,10.50
2018-01-29T19:21:21.825Z,10.50
2018-01-29T19:23:51.288Z,10.50
2018-01-29T19:26:20.464Z,10.50
2018-01-29T19:28:49.617Z,10.50
2018-01-29T19:31:18.678Z,10.50
2018-01-29T19:33:47.711Z,10.50
2018-01-29T19:36:17.559Z,10.60
2018-01-29T19:38:46.586Z,10.50
2018-01-29T19:41:15.656Z,10.60
2018-01-29T19:43:44.683Z,10.70
2018-01-29T19:46:13.738Z,10.70
2018-01-29T19:48:46.608Z,10.60
2018-01-29T19:51:15.862Z,10.60
2018-01-29T19:53:45.598Z,10.60
2018-01-29T19:56:15.440Z,10.60
2018-01-29T19:58:45.339Z,10.60
2018-01-29T20:01:15.771Z,10.80
2018-01-29T20:03:47.070Z,10.80
2018-01-29T20:06:16.541Z,10.90
2018-01-29T20:08:45.963Z,10.80
2018-01-29T20:11:15.294Z,10.90
2018-01-29T20:13:46.606Z,10.80
2018-01-29T20:16:16.838Z,11.00
2018-01-29T20:18:47.496Z,10.90
2018-01-29T20:21:18.119Z,10.90
2018-01-29T20:23:49.977Z,10.80
2018-01-29T20:26:20.328Z,10.80
2018-01-29T20:28:50.665Z,10.80
2018-01-29T20:31:20.241Z,10.80
2018-01-29T20:33:49.654Z,10.90
2018-01-29T20:36:19.014Z,10.80
2018-01-29T20:38:48.400Z,10.80
2018-01-29T20:41:18.208Z,10.90
2018-01-29T20:43:47.839Z,10.90
2018-01-29T20:46:20.737Z,10.90
2018-01-29T20:48:51.253Z,11.00
2018-01-29T20:51:21.070Z,11.00
2018-01-29T20:53:51.270Z,11.00
2018-01-29T20:56:20.931Z,11.00
2018-01-29T20:58:50.137Z,10.90
2018-01-29T21:01:19.368Z,11.00
2018-01-29T21:03:48.797Z,10.80
2018-01-29T21:06:18.107Z,10.70
2018-01-29T21:11:28.752Z,10.90
2018-01-29T21:13:59.012Z,10.70
2018-01-29T21:16:29.066Z,10.60
2018-01-29T21:18:58.786Z,10.60
2018-01-29T21:21:30.410Z,10.50
2018-01-29T21:24:01.449Z,10.60
2018-01-29T21:26:31.777Z,10.70
2018-01-29T21:29:01.232Z,10.60
2018-01-29T21:31:30.713Z,10.70
2018-01-29T21:33:59.941Z,10.50
2018-01-29T21:36:29.079Z,10.70
2018-01-29T21:38:58.264Z,10.70
2018-01-29T21:41:41.487Z,10.80
2018-01-29T21:44:10.812Z,10.90
2018-01-29T21:46:40.128Z,11.00
2018-01-29T21:49:09.435Z,11.10
2018-01-29T21:51:39.004Z,11.00
2018-01-29T21:54:08.837Z,10.90
2018-01-29T21:56:39.005Z,11.00
2018-01-29T21:59:08.199Z,11.00
2018-01-29T22:01:38.341Z,11.00
2018-01-29T22:04:07.492Z,11.00
2018-01-29T22:06:36.872Z,11.00
2018-01-29T22:09:06.477Z,10.90
2018-01-29T22:11:35.800Z,11.00
2018-01-29T22:14:06.359Z,10.90
2018-01-29T22:16:37.040Z,10.90
2018-01-29T22:19:06.404Z,10.90
2018-01-29T22:21:36.962Z,10.90
2018-01-29T22:24:07.334Z,11.00
2018-01-29T22:26:37.191Z,11.10
2018-01-29T22:29:06.251Z,11.00
2018-01-29T22:31:35.675Z,11.10
2018-01-29T22:34:05.879Z,11.10
2018-01-29T22:36:35.648Z,11.10
2018-01-29T22:39:04.865Z,11.10
2018-01-29T22:41:35.298Z,11.10
2018-01-29T22:44:04.743Z,10.90
2018-01-29T22:46:34.249Z,10.90
2018-01-29T22:49:04.122Z,10.90
2018-01-29T22:51:33.707Z,11.00
2018-01-29T22:54:02.822Z,10.90
2018-01-29T22:56:32.605Z,10.80
2018-01-29T22:59:01.620Z,10.80
2018-01-29T23:01:31.447Z,10.80
2018-01-29T23:04:00.466Z,10.70
2018-01-29T23:06:29.516Z,10.90
2018-01-29T23:08:58.689Z,10.80
2018-01-29T23:11:27.753Z,10.80
2018-01-29T23:13:56.766Z,10.70
2018-01-29T23:16:25.829Z,10.70
2018-01-29T23:18:54.854Z,10.70
2018-01-29T23:21:23.908Z,10.70
2018-01-29T23:23:52.945Z,10.70
2018-01-29T23:26:21.982Z,10.70
2018-01-29T23:28:51.802Z,10.50
2018-01-29T23:31:20.816Z,10.40
2018-01-29T23:33:49.869Z,10.60
2018-01-29T23:36:19.644Z,10.60
2018-01-29T23:38:48.712Z,10.50
2018-01-29T23:41:17.726Z,10.50
2018-01-29T23:43:46.770Z,10.40
2018-01-29T23:46:15.807Z,10.50
2018-01-29T23:48:44.844Z,10.30
2018-01-29T23:51:13.863Z,10.30
2018-01-29T23:53:42.910Z,10.40
2018-01-29T23:56:11.938Z,10.40
2018-01-29T23:58:41.775Z,10.40
